sensor_id;sensor_type;location;lat;lon;timestamp;P1;durP1;ratioP1;P2;durP2;ratioP2
33138;SDS011;19501;50.948;5.316;2022-09-03T00:02:42;8.77;;;4.32;;
33138;SDS011;19501;50.948;5.316;2022-09-03T00:05:24;7.85;;;4.15;;
33138;SDS011;19501;50.948;5.316;2022-09-03T00:08:22;8.65;;;3.97;;
33138;SDS011;19501;50.948;5.316;2022-09-03T00:16:23;11.38;;;3.97;;
33138;SDS011;19501;50.948;5.316;2022-09-03T00:18:55;12.77;;;4.53;;
33138;SDS011;19501;50.948;5.316;2022-09-03T00:21:36;10.00;;;4.15;;
33138;SDS011;19501;50.948;5.316;2022-09-03T00:24:06;8.38;;;4.00;;
33138;SDS011;19501;50.948;5.316;2022-09-03T00:26:36;8.75;;;4.35;;
33138;SDS011;19501;50.948;5.316;2022-09-03T00:29:08;8.82;;;4.53;;
33138;SDS011;19501;50.948;5.316;2022-09-03T00:31:42;8.90;;;4.03;;
33138;SDS011;19501;50.948;5.316;2022-09-03T00:34:20;10.13;;;4.40;;
33138;SDS011;19501;50.948;5.316;2022-09-03T00:36:53;11.35;;;4.40;;
33138;SDS011;19501;50.948;5.316;2022-09-03T00:39:20;9.70;;;4.03;;
33138;SDS011;19501;50.948;5.316;2022-09-03T00:42:51;7.57;;;4.00;;
33138;SDS011;19501;50.948;5.316;2022-09-03T00:48:23;6.93;;;4.03;;
33138;SDS011;19501;50.948;5.316;2022-09-03T00:50:58;11.85;;;4.45;;
33138;SDS011;19501;50.948;5.316;2022-09-03T00:53:59;9.27;;;4.20;;
33138;SDS011;19501;50.948;5.316;2022-09-03T01:13:12;10.13;;;3.97;;
33138;SDS011;19501;50.948;5.316;2022-09-03T01:21:12;12.25;;;4.22;;
33138;SDS011;19501;50.948;5.316;2022-09-03T01:26:54;7.18;;;4.00;;
33138;SDS011;19501;50.948;5.316;2022-09-03T01:32:36;7.78;;;4.10;;
33138;SDS011;19501;50.948;5.316;2022-09-03T01:35:18;9.88;;;4.40;;
33138;SDS011;19501;50.948;5.316;2022-09-03T01:38:40;8.77;;;4.15;;
33138;SDS011;19501;50.948;5.316;2022-09-03T01:49:49;9.35;;;3.95;;
33138;SDS011;19501;50.948;5.316;2022-09-03T01:52:18;10.48;;;4.50;;
33138;SDS011;19501;50.948;5.316;2022-09-03T01:57:46;8.25;;;4.10;;
33138;SDS011;19501;50.948;5.316;2022-09-03T02:00:23;11.35;;;3.90;;
33138;SDS011;19501;50.948;5.316;2022-09-03T02:02:53;7.35;;;3.90;;
33138;SDS011;19501;50.948;5.316;2022-09-03T02:05:26;9.20;;;4.40;;
33138;SDS011;19501;50.948;5.316;2022-09-03T02:07:57;7.85;;;4.05;;
33138;SDS011;19501;50.948;5.316;2022-09-03T02:10:47;9.45;;;4.05;;
33138;SDS011;19501;50.948;5.316;2022-09-03T02:13:15;7.47;;;4.07;;
33138;SDS011;19501;50.948;5.316;2022-09-03T02:15:47;7.05;;;4.10;;
33138;SDS011;19501;50.948;5.316;2022-09-03T02:18:26;8.80;;;3.97;;
33138;SDS011;19501;50.948;5.316;2022-09-03T02:20:55;7.05;;;4.00;;
33138;SDS011;19501;50.948;5.316;2022-09-03T02:23:23;9.07;;;4.22;;
33138;SDS011;19501;50.948;5.316;2022-09-03T02:25:56;12.70;;;4.60;;
33138;SDS011;19501;50.948;5.316;2022-09-03T02:28:24;7.20;;;4.10;;
33138;SDS011;19501;50.948;5.316;2022-09-03T02:30:51;9.23;;;4.45;;
33138;SDS011;19501;50.948;5.316;2022-09-03T02:33:18;12.18;;;4.57;;
33138;SDS011;19501;50.948;5.316;2022-09-03T02:35:44;10.80;;;4.28;;
33138;SDS011;19501;50.948;5.316;2022-09-03T02:38:15;11.50;;;4.70;;
33138;SDS011;19501;50.948;5.316;2022-09-03T02:40:43;9.63;;;3.95;;
33138;SDS011;19501;50.948;5.316;2022-09-03T02:43:26;7.88;;;4.30;;
33138;SDS011;19501;50.948;5.316;2022-09-03T02:46:13;7.90;;;4.30;;
33138;SDS011;19501;50.948;5.316;2022-09-03T02:48:45;8.30;;;4.25;;
33138;SDS011;19501;50.948;5.316;2022-09-03T02:51:11;9.60;;;4.15;;
33138;SDS011;19501;50.948;5.316;2022-09-03T02:53:37;14.43;;;4.15;;
33138;SDS011;19501;50.948;5.316;2022-09-03T02:56:03;8.95;;;4.13;;
33138;SDS011;19501;50.948;5.316;2022-09-03T02:58:29;9.13;;;4.05;;
33138;SDS011;19501;50.948;5.316;2022-09-03T03:00:55;8.05;;;4.35;;
33138;SDS011;19501;50.948;5.316;2022-09-03T03:03:21;7.40;;;4.20;;
33138;SDS011;19501;50.948;5.316;2022-09-03T03:05:48;9.50;;;4.28;;
33138;SDS011;19501;50.948;5.316;2022-09-03T03:08:16;8.95;;;4.18;;
33138;SDS011;19501;50.948;5.316;2022-09-03T03:10:45;7.40;;;4.05;;
33138;SDS011;19501;50.948;5.316;2022-09-03T03:13:13;12.10;;;4.38;;
33138;SDS011;19501;50.948;5.316;2022-09-03T03:15:39;13.20;;;4.78;;
33138;SDS011;19501;50.948;5.316;2022-09-03T03:18:06;10.25;;;4.28;;
33138;SDS011;19501;50.948;5.316;2022-09-03T03:20:32;7.93;;;4.30;;
33138;SDS011;19501;50.948;5.316;2022-09-03T03:23:01;10.95;;;4.55;;
33138;SDS011;19501;50.948;5.316;2022-09-03T03:25:30;9.60;;;4.10;;
33138;SDS011;19501;50.948;5.316;2022-09-03T03:27:57;9.55;;;4.40;;
33138;SDS011;19501;50.948;5.316;2022-09-03T03:30:23;7.35;;;4.03;;
33138;SDS011;19501;50.948;5.316;2022-09-03T03:32:48;7.93;;;4.30;;
33138;SDS011;19501;50.948;5.316;2022-09-03T03:35:17;10.18;;;4.25;;
33138;SDS011;19501;50.948;5.316;2022-09-03T03:37:43;8.73;;;4.15;;
33138;SDS011;19501;50.948;5.316;2022-09-03T03:40:08;7.65;;;4.03;;
33138;SDS011;19501;50.948;5.316;2022-09-03T03:42:35;8.00;;;3.97;;
33138;SDS011;19501;50.948;5.316;2022-09-03T03:45:01;11.15;;;4.50;;
33138;SDS011;19501;50.948;5.316;2022-09-03T03:47:27;7.78;;;4.00;;
33138;SDS011;19501;50.948;5.316;2022-09-03T03:49:55;6.72;;;3.85;;
33138;SDS011;19501;50.948;5.316;2022-09-03T03:52:22;10.82;;;4.38;;
33138;SDS011;19501;50.948;5.316;2022-09-03T03:54:49;11.50;;;4.45;;
33138;SDS011;19501;50.948;5.316;2022-09-03T03:57:15;11.63;;;4.35;;
33138;SDS011;19501;50.948;5.316;2022-09-03T03:59:43;12.15;;;4.70;;
33138;SDS011;19501;50.948;5.316;2022-09-03T04:02:09;8.65;;;4.22;;
33138;SDS011;19501;50.948;5.316;2022-09-03T04:04:34;8.55;;;4.40;;
33138;SDS011;19501;50.948;5.316;2022-09-03T04:07:00;8.85;;;3.83;;
33138;SDS011;19501;50.948;5.316;2022-09-03T04:09:26;10.50;;;4.70;;
33138;SDS011;19501;50.948;5.316;2022-09-03T04:11:52;9.23;;;4.15;;
33138;SDS011;19501;50.948;5.316;2022-09-03T04:14:20;10.25;;;4.50;;
33138;SDS011;19501;50.948;5.316;2022-09-03T04:16:46;8.63;;;4.07;;
33138;SDS011;19501;50.948;5.316;2022-09-03T04:19:12;7.35;;;4.00;;
33138;SDS011;19501;50.948;5.316;2022-09-03T04:21:37;11.40;;;4.32;;
33138;SDS011;19501;50.948;5.316;2022-09-03T04:24:04;9.65;;;4.50;;
33138;SDS011;19501;50.948;5.316;2022-09-03T04:26:31;8.77;;;4.10;;
33138;SDS011;19501;50.948;5.316;2022-09-03T04:28:58;9.10;;;4.78;;
33138;SDS011;19501;50.948;5.316;2022-09-03T04:31:25;8.23;;;4.32;;
33138;SDS011;19501;50.948;5.316;2022-09-03T04:33:51;11.85;;;4.82;;
33138;SDS011;19501;50.948;5.316;2022-09-03T04:36:18;12.80;;;4.53;;
33138;SDS011;19501;50.948;5.316;2022-09-03T04:38:49;11.50;;;4.10;;
33138;SDS011;19501;50.948;5.316;2022-09-03T04:41:17;9.50;;;5.30;;
33138;SDS011;19501;50.948;5.316;2022-09-03T04:43:44;11.95;;;4.35;;
33138;SDS011;19501;50.948;5.316;2022-09-03T04:46:11;10.45;;;4.20;;
33138;SDS011;19501;50.948;5.316;2022-09-03T04:48:38;8.68;;;4.00;;
33138;SDS011;19501;50.948;5.316;2022-09-03T04:53:38;13.60;;;4.35;;
33138;SDS011;19501;50.948;5.316;2022-09-03T04:56:12;10.73;;;4.30;;
33138;SDS011;19501;50.948;5.316;2022-09-03T04:58:46;9.93;;;4.10;;
33138;SDS011;19501;50.948;5.316;2022-09-03T05:01:15;9.48;;;4.55;;
33138;SDS011;19501;50.948;5.316;2022-09-03T05:03:43;8.60;;;4.40;;
33138;SDS011;19501;50.948;5.316;2022-09-03T05:06:10;13.05;;;4.57;;
33138;SDS011;19501;50.948;5.316;2022-09-03T05:08:37;9.60;;;4.07;;
33138;SDS011;19501;50.948;5.316;2022-09-03T05:11:05;12.60;;;4.25;;
33138;SDS011;19501;50.948;5.316;2022-09-03T05:13:31;9.35;;;4.05;;
33138;SDS011;19501;50.948;5.316;2022-09-03T05:15:59;8.45;;;4.47;;
33138;SDS011;19501;50.948;5.316;2022-09-03T05:18:26;12.30;;;4.35;;
33138;SDS011;19501;50.948;5.316;2022-09-03T05:21:02;8.95;;;4.28;;
33138;SDS011;19501;50.948;5.316;2022-09-03T05:23:50;13.75;;;4.28;;
33138;SDS011;19501;50.948;5.316;2022-09-03T05:26:18;16.15;;;4.68;;
33138;SDS011;19501;50.948;5.316;2022-09-03T05:28:46;9.07;;;4.53;;
33138;SDS011;19501;50.948;5.316;2022-09-03T05:31:13;14.27;;;4.70;;
33138;SDS011;19501;50.948;5.316;2022-09-03T05:33:44;13.77;;;4.80;;
33138;SDS011;19501;50.948;5.316;2022-09-03T05:36:12;12.32;;;5.03;;
33138;SDS011;19501;50.948;5.316;2022-09-03T05:38:40;11.52;;;4.63;;
33138;SDS011;19501;50.948;5.316;2022-09-03T05:41:09;10.95;;;4.38;;
33138;SDS011;19501;50.948;5.316;2022-09-03T05:43:36;14.02;;;5.07;;
33138;SDS011;19501;50.948;5.316;2022-09-03T05:46:06;9.50;;;4.28;;
33138;SDS011;19501;50.948;5.316;2022-09-03T05:48:33;11.77;;;4.28;;
33138;SDS011;19501;50.948;5.316;2022-09-03T05:51:02;12.00;;;4.50;;
33138;SDS011;19501;50.948;5.316;2022-09-03T05:53:28;15.43;;;4.85;;
33138;SDS011;19501;50.948;5.316;2022-09-03T05:58:22;10.63;;;4.18;;
33138;SDS011;19501;50.948;5.316;2022-09-03T06:00:49;9.85;;;4.25;;
33138;SDS011;19501;50.948;5.316;2022-09-03T06:03:15;14.35;;;4.45;;
33138;SDS011;19501;50.948;5.316;2022-09-03T06:05:48;12.80;;;4.25;;
33138;SDS011;19501;50.948;5.316;2022-09-03T06:08:18;11.20;;;4.82;;
33138;SDS011;19501;50.948;5.316;2022-09-03T06:10:45;16.17;;;4.72;;
33138;SDS011;19501;50.948;5.316;2022-09-03T06:13:11;12.20;;;4.10;;
33138;SDS011;19501;50.948;5.316;2022-09-03T06:15:37;13.07;;;4.50;;
33138;SDS011;19501;50.948;5.316;2022-09-03T06:18:03;19.30;;;5.55;;
33138;SDS011;19501;50.948;5.316;2022-09-03T06:20:29;10.40;;;4.47;;
33138;SDS011;19501;50.948;5.316;2022-09-03T06:22:56;11.55;;;4.57;;
33138;SDS011;19501;50.948;5.316;2022-09-03T06:25:22;10.55;;;4.47;;
33138;SDS011;19501;50.948;5.316;2022-09-03T06:27:48;13.45;;;4.63;;
33138;SDS011;19501;50.948;5.316;2022-09-03T06:30:14;9.40;;;4.40;;
33138;SDS011;19501;50.948;5.316;2022-09-03T06:32:44;12.25;;;4.88;;
33138;SDS011;19501;50.948;5.316;2022-09-03T06:35:10;12.27;;;4.82;;
33138;SDS011;19501;50.948;5.316;2022-09-03T06:37:39;13.52;;;4.97;;
33138;SDS011;19501;50.948;5.316;2022-09-03T06:40:05;12.15;;;4.75;;
33138;SDS011;19501;50.948;5.316;2022-09-03T06:42:33;9.95;;;4.45;;
33138;SDS011;19501;50.948;5.316;2022-09-03T06:44:58;14.00;;;4.82;;
33138;SDS011;19501;50.948;5.316;2022-09-03T06:47:24;14.30;;;4.75;;
33138;SDS011;19501;50.948;5.316;2022-09-03T06:49:50;16.30;;;5.20;;
33138;SDS011;19501;50.948;5.316;2022-09-03T06:52:15;11.48;;;4.10;;
33138;SDS011;19501;50.948;5.316;2022-09-03T06:54:41;21.67;;;5.47;;
33138;SDS011;19501;50.948;5.316;2022-09-03T06:57:07;14.98;;;4.50;;
33138;SDS011;19501;50.948;5.316;2022-09-03T06:59:34;14.50;;;5.07;;
33138;SDS011;19501;50.948;5.316;2022-09-03T07:02:02;13.00;;;4.72;;
33138;SDS011;19501;50.948;5.316;2022-09-03T07:04:27;15.32;;;5.43;;
33138;SDS011;19501;50.948;5.316;2022-09-03T07:06:53;16.17;;;5.53;;
33138;SDS011;19501;50.948;5.316;2022-09-03T07:09:20;13.93;;;5.80;;
33138;SDS011;19501;50.948;5.316;2022-09-03T07:11:45;18.08;;;5.65;;
33138;SDS011;19501;50.948;5.316;2022-09-03T07:14:12;17.88;;;6.30;;
33138;SDS011;19501;50.948;5.316;2022-09-03T07:16:38;19.42;;;6.55;;
33138;SDS011;19501;50.948;5.316;2022-09-03T07:19:05;15.25;;;6.15;;
33138;SDS011;19501;50.948;5.316;2022-09-03T07:21:33;14.90;;;5.50;;
33138;SDS011;19501;50.948;5.316;2022-09-03T07:24:04;17.95;;;5.65;;
33138;SDS011;19501;50.948;5.316;2022-09-03T07:26:31;13.85;;;4.72;;
33138;SDS011;19501;50.948;5.316;2022-09-03T07:28:58;12.02;;;4.78;;
33138;SDS011;19501;50.948;5.316;2022-09-03T07:31:26;15.05;;;4.93;;
33138;SDS011;19501;50.948;5.316;2022-09-03T07:33:54;15.80;;;4.80;;
33138;SDS011;19501;50.948;5.316;2022-09-03T07:36:22;10.68;;;4.50;;
33138;SDS011;19501;50.948;5.316;2022-09-03T07:38:49;10.75;;;4.43;;
33138;SDS011;19501;50.948;5.316;2022-09-03T07:41:15;13.85;;;4.20;;
33138;SDS011;19501;50.948;5.316;2022-09-03T07:43:42;16.52;;;5.10;;
33138;SDS011;19501;50.948;5.316;2022-09-03T07:46:17;11.80;;;4.20;;
33138;SDS011;19501;50.948;5.316;2022-09-03T07:48:47;13.52;;;4.07;;
33138;SDS011;19501;50.948;5.316;2022-09-03T07:51:23;9.98;;;3.75;;
33138;SDS011;19501;50.948;5.316;2022-09-03T07:53:52;10.52;;;3.80;;
33138;SDS011;19501;50.948;5.316;2022-09-03T07:56:20;13.05;;;4.18;;
33138;SDS011;19501;50.948;5.316;2022-09-03T07:58:45;11.18;;;4.13;;
33138;SDS011;19501;50.948;5.316;2022-09-03T08:01:13;9.25;;;4.13;;
33138;SDS011;19501;50.948;5.316;2022-09-03T08:03:44;13.82;;;4.10;;
33138;SDS011;19501;50.948;5.316;2022-09-03T08:06:11;10.70;;;4.10;;
33138;SDS011;19501;50.948;5.316;2022-09-03T08:08:39;10.93;;;3.85;;
33138;SDS011;19501;50.948;5.316;2022-09-03T08:11:06;15.25;;;4.63;;
33138;SDS011;19501;50.948;5.316;2022-09-03T08:13:40;8.70;;;3.92;;
33138;SDS011;19501;50.948;5.316;2022-09-03T08:16:10;12.80;;;4.72;;
33138;SDS011;19501;50.948;5.316;2022-09-03T08:18:38;14.93;;;4.90;;
33138;SDS011;19501;50.948;5.316;2022-09-03T08:21:05;12.65;;;4.93;;
33138;SDS011;19501;50.948;5.316;2022-09-03T08:23:35;9.68;;;4.07;;
33138;SDS011;19501;50.948;5.316;2022-09-03T08:26:02;11.65;;;4.40;;
33138;SDS011;19501;50.948;5.316;2022-09-03T08:28:28;11.35;;;4.30;;
33138;SDS011;19501;50.948;5.316;2022-09-03T08:30:56;10.27;;;4.32;;
33138;SDS011;19501;50.948;5.316;2022-09-03T08:33:22;8.25;;;4.25;;
33138;SDS011;19501;50.948;5.316;2022-09-03T08:36:04;11.68;;;5.15;;
33138;SDS011;19501;50.948;5.316;2022-09-03T08:38:33;11.70;;;4.18;;
33138;SDS011;19501;50.948;5.316;2022-09-03T08:41:09;9.57;;;4.18;;
33138;SDS011;19501;50.948;5.316;2022-09-03T08:46:32;11.43;;;4.75;;
33138;SDS011;19501;50.948;5.316;2022-09-03T08:49:12;10.90;;;4.85;;
33138;SDS011;19501;50.948;5.316;2022-09-03T08:51:40;10.40;;;4.65;;
33138;SDS011;19501;50.948;5.316;2022-09-03T08:54:08;12.88;;;5.05;;
33138;SDS011;19501;50.948;5.316;2022-09-03T08:56:37;10.52;;;4.72;;
33138;SDS011;19501;50.948;5.316;2022-09-03T08:59:07;12.23;;;4.68;;
33138;SDS011;19501;50.948;5.316;2022-09-03T09:06:44;16.23;;;5.38;;
33138;SDS011;19501;50.948;5.316;2022-09-03T09:12:20;11.80;;;4.95;;
33138;SDS011;19501;50.948;5.316;2022-09-03T09:15:18;9.27;;;4.57;;
33138;SDS011;19501;50.948;5.316;2022-09-03T09:23:14;9.13;;;4.35;;
33138;SDS011;19501;50.948;5.316;2022-09-03T09:25:52;7.45;;;4.40;;
33138;SDS011;19501;50.948;5.316;2022-09-03T09:30:48;6.97;;;4.07;;
33138;SDS011;19501;50.948;5.316;2022-09-03T09:33:16;10.60;;;4.45;;
33138;SDS011;19501;50.948;5.316;2022-09-03T09:35:43;11.52;;;4.43;;
33138;SDS011;19501;50.948;5.316;2022-09-03T09:38:09;9.95;;;4.20;;
33138;SDS011;19501;50.948;5.316;2022-09-03T09:40:40;8.80;;;4.50;;
33138;SDS011;19501;50.948;5.316;2022-09-03T09:43:08;8.55;;;4.45;;
33138;SDS011;19501;50.948;5.316;2022-09-03T09:45:43;9.60;;;4.75;;
33138;SDS011;19501;50.948;5.316;2022-09-03T09:53:30;7.65;;;4.30;;
33138;SDS011;19501;50.948;5.316;2022-09-03T09:55:58;7.35;;;4.28;;
33138;SDS011;19501;50.948;5.316;2022-09-03T09:58:25;7.85;;;3.78;;
33138;SDS011;19501;50.948;5.316;2022-09-03T10:00:55;11.50;;;4.38;;
33138;SDS011;19501;50.948;5.316;2022-09-03T10:03:23;10.43;;;5.03;;
33138;SDS011;19501;50.948;5.316;2022-09-03T10:06:23;6.78;;;4.13;;
33138;SDS011;19501;50.948;5.316;2022-09-03T10:09:10;10.40;;;4.63;;
33138;SDS011;19501;50.948;5.316;2022-09-03T10:11:40;16.60;;;4.95;;
33138;SDS011;19501;50.948;5.316;2022-09-03T10:14:11;7.05;;;4.50;;
33138;SDS011;19501;50.948;5.316;2022-09-03T10:16:43;9.20;;;4.32;;
33138;SDS011;19501;50.948;5.316;2022-09-03T10:19:16;8.68;;;4.32;;
33138;SDS011;19501;50.948;5.316;2022-09-03T10:21:47;5.13;;;3.83;;
33138;SDS011;19501;50.948;5.316;2022-09-03T10:27:20;6.55;;;4.00;;
33138;SDS011;19501;50.948;5.316;2022-09-03T10:29:47;14.30;;;4.53;;
33138;SDS011;19501;50.948;5.316;2022-09-03T10:38:04;9.40;;;4.68;;
33138;SDS011;19501;50.948;5.316;2022-09-03T10:41:04;14.25;;;5.90;;
33138;SDS011;19501;50.948;5.316;2022-09-03T10:46:16;10.60;;;4.80;;
33138;SDS011;19501;50.948;5.316;2022-09-03T10:48:52;11.48;;;4.68;;
33138;SDS011;19501;50.948;5.316;2022-09-03T10:51:42;6.35;;;4.03;;
33138;SDS011;19501;50.948;5.316;2022-09-03T11:07:50;6.97;;;4.22;;
33138;SDS011;19501;50.948;5.316;2022-09-03T11:10:25;8.05;;;4.03;;
33138;SDS011;19501;50.948;5.316;2022-09-03T11:15:49;6.55;;;3.90;;
33138;SDS011;19501;50.948;5.316;2022-09-03T11:18:26;10.50;;;4.75;;
33138;SDS011;19501;50.948;5.316;2022-09-03T11:21:00;6.38;;;4.20;;
33138;SDS011;19501;50.948;5.316;2022-09-03T11:23:30;9.00;;;4.30;;
33138;SDS011;19501;50.948;5.316;2022-09-03T11:26:03;7.88;;;4.10;;
33138;SDS011;19501;50.948;5.316;2022-09-03T11:37:31;8.43;;;4.22;;
33138;SDS011;19501;50.948;5.316;2022-09-03T11:42:35;7.93;;;4.18;;
33138;SDS011;19501;50.948;5.316;2022-09-03T11:47:54;8.73;;;4.60;;
33138;SDS011;19501;50.948;5.316;2022-09-03T11:50:24;10.43;;;4.95;;
33138;SDS011;19501;50.948;5.316;2022-09-03T11:52:53;10.65;;;4.85;;
33138;SDS011;19501;50.948;5.316;2022-09-03T11:55:33;7.32;;;4.88;;
33138;SDS011;19501;50.948;5.316;2022-09-03T11:58:24;10.00;;;5.05;;
33138;SDS011;19501;50.948;5.316;2022-09-03T12:00:54;9.93;;;5.20;;
33138;SDS011;19501;50.948;5.316;2022-09-03T12:03:24;8.07;;;5.25;;
33138;SDS011;19501;50.948;5.316;2022-09-03T12:09:01;16.40;;;5.45;;
33138;SDS011;19501;50.948;5.316;2022-09-03T12:19:55;9.65;;;5.30;;
33138;SDS011;19501;50.948;5.316;2022-09-03T12:22:25;13.52;;;5.78;;
33138;SDS011;19501;50.948;5.316;2022-09-03T12:25:06;10.10;;;5.40;;
33138;SDS011;19501;50.948;5.316;2022-09-03T12:27:39;10.77;;;5.43;;
33138;SDS011;19501;50.948;5.316;2022-09-03T12:30:18;9.98;;;5.32;;
33138;SDS011;19501;50.948;5.316;2022-09-03T12:32:48;13.30;;;5.70;;
33138;SDS011;19501;50.948;5.316;2022-09-03T12:35:19;11.57;;;5.13;;
33138;SDS011;19501;50.948;5.316;2022-09-03T12:37:46;9.98;;;5.38;;
33138;SDS011;19501;50.948;5.316;2022-09-03T12:40:31;10.32;;;5.18;;
33138;SDS011;19501;50.948;5.316;2022-09-03T12:43:13;11.07;;;5.32;;
33138;SDS011;19501;50.948;5.316;2022-09-03T12:45:42;11.48;;;5.47;;
33138;SDS011;19501;50.948;5.316;2022-09-03T12:48:18;12.68;;;5.60;;
33138;SDS011;19501;50.948;5.316;2022-09-03T12:50:46;11.05;;;5.53;;
33138;SDS011;19501;50.948;5.316;2022-09-03T12:53:20;13.32;;;5.30;;
33138;SDS011;19501;50.948;5.316;2022-09-03T12:55:53;11.80;;;5.53;;
33138;SDS011;19501;50.948;5.316;2022-09-03T12:58:30;9.05;;;5.15;;
33138;SDS011;19501;50.948;5.316;2022-09-03T13:06:15;13.40;;;5.38;;
33138;SDS011;19501;50.948;5.316;2022-09-03T13:08:49;7.55;;;4.70;;
33138;SDS011;19501;50.948;5.316;2022-09-03T13:11:19;11.52;;;5.25;;
33138;SDS011;19501;50.948;5.316;2022-09-03T13:14:04;8.45;;;4.93;;
33138;SDS011;19501;50.948;5.316;2022-09-03T13:22:16;11.48;;;5.18;;
33138;SDS011;19501;50.948;5.316;2022-09-03T13:25:17;8.75;;;4.95;;
33138;SDS011;19501;50.948;5.316;2022-09-03T13:27:58;7.55;;;4.82;;
33138;SDS011;19501;50.948;5.316;2022-09-03T13:30:56;9.30;;;5.20;;
33138;SDS011;19501;50.948;5.316;2022-09-03T13:36:54;10.20;;;5.05;;
33138;SDS011;19501;50.948;5.316;2022-09-03T13:39:37;11.05;;;5.00;;
33138;SDS011;19501;50.948;5.316;2022-09-03T13:42:12;10.25;;;5.03;;
33138;SDS011;19501;50.948;5.316;2022-09-03T13:44:49;10.65;;;5.38;;
33138;SDS011;19501;50.948;5.316;2022-09-03T13:47:34;11.30;;;4.88;;
33138;SDS011;19501;50.948;5.316;2022-09-03T13:50:30;9.77;;;4.80;;
33138;SDS011;19501;50.948;5.316;2022-09-03T13:53:17;8.15;;;4.90;;
33138;SDS011;19501;50.948;5.316;2022-09-03T13:55:55;9.52;;;4.68;;
33138;SDS011;19501;50.948;5.316;2022-09-03T14:04:02;8.93;;;4.72;;
33138;SDS011;19501;50.948;5.316;2022-09-03T14:09:35;10.02;;;4.68;;
33138;SDS011;19501;50.948;5.316;2022-09-03T14:12:36;10.85;;;5.28;;
33138;SDS011;19501;50.948;5.316;2022-09-03T14:15:31;10.02;;;4.95;;
33138;SDS011;19501;50.948;5.316;2022-09-03T14:18:32;8.98;;;5.32;;
33138;SDS011;19501;50.948;5.316;2022-09-03T14:21:19;12.98;;;5.38;;
33138;SDS011;19501;50.948;5.316;2022-09-03T14:24:12;17.48;;;6.15;;
33138;SDS011;19501;50.948;5.316;2022-09-03T14:26:51;11.45;;;5.35;;
33138;SDS011;19501;50.948;5.316;2022-09-03T14:29:26;13.75;;;5.47;;
33138;SDS011;19501;50.948;5.316;2022-09-03T14:40:10;9.48;;;5.30;;
33138;SDS011;19501;50.948;5.316;2022-09-03T14:43:03;11.85;;;5.80;;
33138;SDS011;19501;50.948;5.316;2022-09-03T14:46:00;11.00;;;5.45;;
33138;SDS011;19501;50.948;5.316;2022-09-03T14:48:57;12.55;;;6.40;;
33138;SDS011;19501;50.948;5.316;2022-09-03T15:03:23;12.90;;;5.68;;
33138;SDS011;19501;50.948;5.316;2022-09-03T15:09:44;9.55;;;5.32;;
33138;SDS011;19501;50.948;5.316;2022-09-03T15:11:57;12.30;;;5.65;;
33138;SDS011;19501;50.948;5.316;2022-09-03T15:25:49;12.93;;;5.85;;
33138;SDS011;19501;50.948;5.316;2022-09-03T15:31:41;10.23;;;5.60;;
33138;SDS011;19501;50.948;5.316;2022-09-03T15:34:18;14.02;;;5.38;;
33138;SDS011;19501;50.948;5.316;2022-09-03T15:36:55;11.70;;;5.38;;
33138;SDS011;19501;50.948;5.316;2022-09-03T15:39:24;11.35;;;5.47;;
33138;SDS011;19501;50.948;5.316;2022-09-03T15:41:56;9.93;;;5.15;;
33138;SDS011;19501;50.948;5.316;2022-09-03T15:44:26;11.80;;;5.60;;
33138;SDS011;19501;50.948;5.316;2022-09-03T15:46:59;10.75;;;5.13;;
33138;SDS011;19501;50.948;5.316;2022-09-03T15:55:12;8.45;;;5.10;;
33138;SDS011;19501;50.948;5.316;2022-09-03T15:57:52;10.95;;;5.25;;
33138;SDS011;19501;50.948;5.316;2022-09-03T16:03:40;10.95;;;5.93;;
33138;SDS011;19501;50.948;5.316;2022-09-03T16:06:15;12.48;;;5.63;;
33138;SDS011;19501;50.948;5.316;2022-09-03T16:08:56;11.00;;;6.03;;
33138;SDS011;19501;50.948;5.316;2022-09-03T16:11:33;14.27;;;6.53;;
33138;SDS011;19501;50.948;5.316;2022-09-03T16:14:14;11.88;;;5.75;;
33138;SDS011;19501;50.948;5.316;2022-09-03T16:16:58;14.43;;;6.03;;
33138;SDS011;19501;50.948;5.316;2022-09-03T16:21:54;13.63;;;6.00;;
33138;SDS011;19501;50.948;5.316;2022-09-03T16:33:16;10.38;;;5.15;;
33138;SDS011;19501;50.948;5.316;2022-09-03T16:44:14;12.23;;;5.40;;
33138;SDS011;19501;50.948;5.316;2022-09-03T16:51:55;9.23;;;4.97;;
33138;SDS011;19501;50.948;5.316;2022-09-03T16:57:37;13.50;;;5.07;;
33138;SDS011;19501;50.948;5.316;2022-09-03T17:00:21;11.50;;;5.63;;
33138;SDS011;19501;50.948;5.316;2022-09-03T17:22:29;9.93;;;4.88;;
33138;SDS011;19501;50.948;5.316;2022-09-03T17:24:58;9.98;;;5.03;;
33138;SDS011;19501;50.948;5.316;2022-09-03T17:35:28;9.55;;;4.93;;
33138;SDS011;19501;50.948;5.316;2022-09-03T17:43:27;11.10;;;4.80;;
33138;SDS011;19501;50.948;5.316;2022-09-03T17:46:22;10.25;;;4.82;;
33138;SDS011;19501;50.948;5.316;2022-09-03T17:49:01;8.18;;;4.63;;
33138;SDS011;19501;50.948;5.316;2022-09-03T17:54:14;12.65;;;4.53;;
33138;SDS011;19501;50.948;5.316;2022-09-03T17:56:53;9.70;;;4.45;;
33138;SDS011;19501;50.948;5.316;2022-09-03T17:59:29;7.53;;;4.38;;
33138;SDS011;19501;50.948;5.316;2022-09-03T18:01:59;12.68;;;4.43;;
33138;SDS011;19501;50.948;5.316;2022-09-03T18:04:33;11.82;;;4.63;;
33138;SDS011;19501;50.948;5.316;2022-09-03T18:10:47;9.57;;;4.38;;
33138;SDS011;19501;50.948;5.316;2022-09-03T18:19:58;10.80;;;4.78;;
33138;SDS011;19501;50.948;5.316;2022-09-03T18:22:19;8.48;;;4.70;;
33138;SDS011;19501;50.948;5.316;2022-09-03T18:25:08;10.57;;;4.85;;
33138;SDS011;19501;50.948;5.316;2022-09-03T18:27:56;12.60;;;5.32;;
33138;SDS011;19501;50.948;5.316;2022-09-03T18:30:47;8.18;;;5.13;;
33138;SDS011;19501;50.948;5.316;2022-09-03T18:33:31;12.07;;;4.97;;
33138;SDS011;19501;50.948;5.316;2022-09-03T18:36:15;16.23;;;6.07;;
33138;SDS011;19501;50.948;5.316;2022-09-03T18:41:59;16.88;;;5.35;;
33138;SDS011;19501;50.948;5.316;2022-09-03T18:48:15;11.07;;;5.03;;
33138;SDS011;19501;50.948;5.316;2022-09-03T18:51:31;10.38;;;4.72;;
33138;SDS011;19501;50.948;5.316;2022-09-03T18:57:25;9.43;;;4.95;;
33138;SDS011;19501;50.948;5.316;2022-09-03T19:00:19;13.02;;;5.70;;
33138;SDS011;19501;50.948;5.316;2022-09-03T19:03:14;14.10;;;5.05;;
33138;SDS011;19501;50.948;5.316;2022-09-03T19:23:52;12.60;;;5.38;;
33138;SDS011;19501;50.948;5.316;2022-09-03T19:26:46;13.80;;;5.60;;
33138;SDS011;19501;50.948;5.316;2022-09-03T19:30:02;14.43;;;5.53;;
33138;SDS011;19501;50.948;5.316;2022-09-03T19:35:42;13.63;;;5.72;;
33138;SDS011;19501;50.948;5.316;2022-09-03T19:38:41;18.35;;;5.90;;
33138;SDS011;19501;50.948;5.316;2022-09-03T19:41:50;12.90;;;5.57;;
33138;SDS011;19501;50.948;5.316;2022-09-03T19:51:27;13.95;;;5.40;;
33138;SDS011;19501;50.948;5.316;2022-09-03T19:54:18;11.90;;;5.32;;
33138;SDS011;19501;50.948;5.316;2022-09-03T19:57:07;13.23;;;5.78;;
33138;SDS011;19501;50.948;5.316;2022-09-03T19:59:55;17.50;;;5.53;;
33138;SDS011;19501;50.948;5.316;2022-09-03T20:02:41;18.90;;;5.65;;
33138;SDS011;19501;50.948;5.316;2022-09-03T20:05:28;12.93;;;5.70;;
33138;SDS011;19501;50.948;5.316;2022-09-03T20:08:12;14.50;;;5.70;;
33138;SDS011;19501;50.948;5.316;2022-09-03T20:10:59;15.68;;;5.50;;
33138;SDS011;19501;50.948;5.316;2022-09-03T20:13:27;11.20;;;5.22;;
33138;SDS011;19501;50.948;5.316;2022-09-03T20:16:34;14.65;;;5.97;;
33138;SDS011;19501;50.948;5.316;2022-09-03T20:22:55;11.90;;;5.43;;
33138;SDS011;19501;50.948;5.316;2022-09-03T20:28:03;15.75;;;5.65;;
33138;SDS011;19501;50.948;5.316;2022-09-03T20:52:20;14.65;;;5.22;;
33138;SDS011;19501;50.948;5.316;2022-09-03T21:04:16;10.90;;;5.00;;
33138;SDS011;19501;50.948;5.316;2022-09-03T21:12:07;15.55;;;4.65;;
33138;SDS011;19501;50.948;5.316;2022-09-03T21:20:40;10.30;;;4.43;;
33138;SDS011;19501;50.948;5.316;2022-09-03T21:25:41;12.95;;;4.80;;